createdAt,value
2022-12-14T00:01:19.196Z,1.90
2022-12-14T00:03:46.568Z,1.66
2022-12-14T00:06:14.315Z,1.76
2022-12-14T00:08:42.019Z,1.19
2022-12-14T00:11:09.041Z,1.32
2022-12-14T00:13:35.835Z,1.25
2022-12-14T00:16:16.311Z,1.59
2022-12-14T00:18:44.191Z,1.41
2022-12-14T00:21:13.743Z,1.84
2022-12-14T00:23:43.508Z,1.86
2022-12-14T00:26:11.928Z,2.01
2022-12-14T00:28:38.598Z,1.86
2022-12-14T00:31:05.449Z,2.07
2022-12-14T00:33:32.748Z,2.15
2022-12-14T00:35:59.707Z,2.06
2022-12-14T00:38:26.761Z,1.99
2022-12-14T00:40:54.708Z,2.01
2022-12-14T00:43:22.128Z,1.90
2022-12-14T00:45:49.042Z,2.01
2022-12-14T00:48:15.642Z,2.13
2022-12-14T00:50:44.473Z,2.03
2022-12-14T00:53:15.629Z,2.02
2022-12-14T00:55:44.348Z,1.88
2022-12-14T00:58:17.749Z,1.84
2022-12-14T01:00:44.531Z,1.63
2022-12-14T01:03:12.047Z,1.57
2022-12-14T01:05:39.206Z,1.42
2022-12-14T01:08:06.672Z,1.04
2022-12-14T01:10:33.361Z,1.16
2022-12-14T01:12:59.806Z,1.28
2022-12-14T01:15:26.301Z,1.53
2022-12-14T01:17:52.954Z,0.82
2022-12-14T01:20:19.922Z,1.10
2022-12-14T01:22:46.515Z,1.37
2022-12-14T01:25:12.988Z,1.48
2022-12-14T01:27:39.542Z,1.57
2022-12-14T01:30:06.538Z,1.38
2022-12-14T01:32:34.826Z,1.77
2022-12-14T01:35:01.539Z,1.50
2022-12-14T01:37:28.958Z,1.68
2022-12-14T01:39:55.495Z,1.66
2022-12-14T01:42:22.223Z,1.21
2022-12-14T01:44:54.206Z,1.16
2022-12-14T01:47:28.967Z,0.90
2022-12-14T01:50:00.124Z,0.83
2022-12-14T01:52:28.870Z,1.29
2022-12-14T01:55:12.006Z,1.04
2022-12-14T01:57:49.127Z,0.99
2022-12-14T02:00:16.895Z,0.23
2022-12-14T02:02:52.620Z,0.85
2022-12-14T02:05:21.182Z,1.00
2022-12-14T02:07:49.201Z,0.63
2022-12-14T02:10:15.986Z,0.43
2022-12-14T02:12:49.264Z,1.09
2022-12-14T02:15:16.741Z,1.10
2022-12-14T02:17:44.512Z,0.85
2022-12-14T02:20:12.199Z,1.04
2022-12-14T02:22:57.485Z,1.29
2022-12-14T02:25:44.830Z,0.91
2022-12-14T02:28:43.289Z,1.13
2022-12-14T02:31:22.105Z,1.49
2022-12-14T02:33:54.610Z,1.58
2022-12-14T02:36:28.616Z,1.64
2022-12-14T02:39:04.272Z,1.65
2022-12-14T02:41:38.424Z,1.65
2022-12-14T02:44:16.320Z,1.65
2022-12-14T02:46:58.173Z,1.50
2022-12-14T02:49:49.441Z,1.70
2022-12-14T02:52:22.346Z,1.31
2022-12-14T02:54:48.824Z,1.62
2022-12-14T02:57:23.814Z,1.42
2022-12-14T02:59:52.581Z,1.62
2022-12-14T03:02:19.207Z,1.56
2022-12-14T03:04:49.780Z,1.64
2022-12-14T03:07:37.673Z,1.55
2022-12-14T03:10:30.934Z,1.64
2022-12-14T03:13:03.387Z,1.62
2022-12-14T03:15:29.940Z,1.15
2022-12-14T03:17:58.321Z,0.95
2022-12-14T03:20:36.053Z,0.95
2022-12-14T03:23:16.754Z,1.16
2022-12-14T03:25:54.087Z,1.24
2022-12-14T03:28:24.553Z,0.99
2022-12-14T03:31:00.625Z,0.70
2022-12-14T03:33:29.601Z,1.45
2022-12-14T03:36:14.915Z,1.60
2022-12-14T03:38:44.764Z,1.28
2022-12-14T03:41:21.491Z,0.95
2022-12-14T03:44:19.245Z,0.87
2022-12-14T03:47:23.468Z,0.84
2022-12-14T03:50:19.548Z,0.93
2022-12-14T03:53:03.454Z,1.08
2022-12-14T03:55:36.700Z,1.01
2022-12-14T03:58:24.570Z,1.18
2022-12-14T04:01:08.979Z,0.80
2022-12-14T04:03:46.376Z,1.07
2022-12-14T04:06:26.369Z,0.94
2022-12-14T04:09:12.401Z,1.21
2022-12-14T04:12:04.204Z,0.50
2022-12-14T04:14:53.497Z,0.83
2022-12-14T04:17:43.492Z,0.89
2022-12-14T04:20:16.874Z,0.26
2022-12-14T04:22:49.954Z,0.63
2022-12-14T04:25:40.124Z,0.81
2022-12-14T04:28:44.117Z,0.51
2022-12-14T04:31:14.899Z,0.64
2022-12-14T04:33:47.622Z,0.29
2022-12-14T04:36:24.532Z,0.70
2022-12-14T04:38:55.219Z,0.17
2022-12-14T04:41:25.198Z,0.44
2022-12-14T04:43:54.211Z,0.54
2022-12-14T04:46:25.438Z,0.54
2022-12-14T04:49:12.853Z,1.02
2022-12-14T04:52:05.996Z,1.05
2022-12-14T04:54:48.579Z,0.92
2022-12-14T04:57:24.314Z,1.21
2022-12-14T04:59:51.147Z,0.66
2022-12-14T05:02:39.495Z,1.55
2022-12-14T05:05:19.490Z,1.48
2022-12-14T05:08:07.314Z,1.57
2022-12-14T05:10:39.774Z,1.61
2022-12-14T05:13:22.400Z,1.47
2022-12-14T05:15:50.593Z,1.62
2022-12-14T05:18:17.464Z,1.66
2022-12-14T05:20:46.483Z,1.87
2022-12-14T05:23:13.104Z,0.99
2022-12-14T05:25:39.632Z,1.30
2022-12-14T05:28:06.578Z,0.96
2022-12-14T05:30:34.005Z,0.77
2022-12-14T05:33:00.554Z,1.14
2022-12-14T05:35:27.142Z,1.05
2022-12-14T05:37:53.657Z,0.95
2022-12-14T05:40:20.119Z,0.56
2022-12-14T05:42:49.874Z,0.75
2022-12-14T05:45:20.448Z,0.46
2022-12-14T05:47:46.942Z,0.82
2022-12-14T05:50:13.428Z,0.59
2022-12-14T05:52:39.876Z,0.54
2022-12-14T05:55:07.040Z,0.75
2022-12-14T05:57:33.502Z,1.20
2022-12-14T06:00:00.257Z,1.23
2022-12-14T06:02:27.177Z,1.02
2022-12-14T06:04:53.688Z,1.02
2022-12-14T06:07:25.929Z,1.28
2022-12-14T06:09:54.093Z,1.47
2022-12-14T06:12:20.629Z,0.85
2022-12-14T06:14:47.113Z,1.30
2022-12-14T06:17:13.726Z,1.08
2022-12-14T06:19:40.154Z,0.83
2022-12-14T06:22:06.711Z,1.19
2022-12-14T06:24:33.665Z,1.07
2022-12-14T06:27:00.236Z,1.40
2022-12-14T06:29:28.792Z,0.72
2022-12-14T06:31:55.321Z,0.99
2022-12-14T06:34:26.506Z,1.74
2022-12-14T06:36:55.216Z,1.52
2022-12-14T06:39:21.742Z,1.81
2022-12-14T06:41:51.776Z,1.93
2022-12-14T06:44:18.519Z,1.60
2022-12-14T06:46:45.122Z,2.01
2022-12-14T06:49:14.696Z,1.55
2022-12-14T06:51:41.684Z,0.82
2022-12-14T06:54:10.819Z,1.49
2022-12-14T06:56:37.918Z,1.15
2022-12-14T06:59:05.365Z,1.52
2022-12-14T07:01:32.264Z,1.55
2022-12-14T07:03:59.553Z,1.51
2022-12-14T07:06:27.871Z,1.59
2022-12-14T07:08:58.070Z,1.62
2022-12-14T07:11:25.953Z,1.47
2022-12-14T07:13:53.195Z,1.59
2022-12-14T07:16:23.310Z,2.08
2022-12-14T07:18:50.623Z,1.99
2022-12-14T07:21:18.425Z,2.11
2022-12-14T07:23:45.930Z,2.23
2022-12-14T07:26:13.656Z,1.95
2022-12-14T07:28:41.017Z,2.18
2022-12-14T07:31:11.819Z,2.09
2022-12-14T07:33:38.655Z,2.08
2022-12-14T07:36:10.722Z,2.13
2022-12-14T07:38:38.685Z,2.33
2022-12-14T07:41:11.014Z,2.31
2022-12-14T07:43:39.145Z,2.35
2022-12-14T07:46:09.808Z,2.26
2022-12-14T07:48:36.598Z,2.28
2022-12-14T07:51:08.727Z,2.35
2022-12-14T07:53:37.048Z,2.32
2022-12-14T07:56:08.696Z,2.28
2022-12-14T07:58:36.239Z,2.46
2022-12-14T08:01:11.335Z,2.51
2022-12-14T08:03:39.234Z,2.27
2022-12-14T08:06:07.073Z,2.43
2022-12-14T08:08:33.730Z,2.14
2022-12-14T08:11:01.146Z,2.44
2022-12-14T08:13:28.343Z,2.57
2022-12-14T08:15:55.081Z,2.41
2022-12-14T08:18:21.715Z,2.05
2022-12-14T08:20:53.386Z,1.71
2022-12-14T08:23:20.467Z,2.29
2022-12-14T08:25:54.208Z,2.07
2022-12-14T08:28:21.221Z,2.54
2022-12-14T08:30:47.781Z,2.16
2022-12-14T08:33:14.343Z,1.88
2022-12-14T08:35:41.045Z,1.80
2022-12-14T08:38:08.245Z,2.21
2022-12-14T08:40:35.783Z,2.17
2022-12-14T08:43:02.348Z,2.20
2022-12-14T08:45:28.849Z,2.20
2022-12-14T08:47:58.884Z,2.53
2022-12-14T08:50:26.039Z,2.22
2022-12-14T08:52:53.191Z,2.59
2022-12-14T08:55:25.709Z,2.72
2022-12-14T08:57:54.970Z,2.81
2022-12-14T09:00:21.490Z,2.97
2022-12-14T09:02:51.496Z,3.22
2022-12-14T09:05:18.438Z,3.02
2022-12-14T09:07:45.200Z,2.54
2022-12-14T09:10:12.597Z,2.76
2022-12-14T09:12:39.443Z,2.39
2022-12-14T09:15:06.790Z,2.34
2022-12-14T09:17:34.402Z,2.91
2022-12-14T09:20:01.987Z,2.75
2022-12-14T09:22:28.689Z,2.62
2022-12-14T09:24:55.204Z,2.95
2022-12-14T09:27:22.519Z,2.90
2022-12-14T09:29:50.011Z,3.26
2022-12-14T09:32:16.815Z,3.36
2022-12-14T09:34:43.279Z,3.25
2022-12-14T09:37:09.863Z,3.50
2022-12-14T09:39:37.226Z,3.37
2022-12-14T09:42:33.081Z,3.24
2022-12-14T09:45:05.626Z,3.30
2022-12-14T09:47:50.257Z,3.44
2022-12-14T09:50:19.525Z,3.47
2022-12-14T09:52:48.987Z,3.37
2022-12-14T09:55:20.231Z,3.28
2022-12-14T09:57:48.705Z,3.59
2022-12-14T10:00:20.039Z,3.32
2022-12-14T10:03:06.913Z,3.33
2022-12-14T10:05:53.031Z,2.80
2022-12-14T10:08:37.760Z,2.67
2022-12-14T10:11:14.337Z,2.85
2022-12-14T10:14:19.969Z,2.88
2022-12-14T10:17:01.688Z,3.23
2022-12-14T10:19:46.527Z,3.09
2022-12-14T10:22:16.712Z,3.15
2022-12-14T10:24:48.836Z,3.60
2022-12-14T10:27:24.335Z,3.86
2022-12-14T10:29:57.199Z,4.03
2022-12-14T10:32:45.742Z,4.36
2022-12-14T10:35:16.944Z,4.41
2022-12-14T10:37:45.758Z,4.39
2022-12-14T10:40:32.558Z,4.19
2022-12-14T10:43:05.414Z,4.34
2022-12-14T10:45:50.262Z,4.57
2022-12-14T10:48:29.330Z,4.73
2022-12-14T10:51:02.251Z,4.65
2022-12-14T10:53:41.167Z,3.81
2022-12-14T10:56:14.661Z,4.28
2022-12-14T10:58:41.244Z,4.04
2022-12-14T11:01:13.534Z,4.19
2022-12-14T11:03:42.288Z,4.69
2022-12-14T11:06:17.549Z,4.65
2022-12-14T11:08:48.107Z,4.72
2022-12-14T11:11:21.295Z,4.58
2022-12-14T11:14:07.986Z,4.82
2022-12-14T11:16:39.900Z,5.10
2022-12-14T11:19:16.019Z,5.28
2022-12-14T11:21:42.893Z,5.50
2022-12-14T11:24:24.162Z,5.46
2022-12-14T11:26:52.887Z,5.54
2022-12-14T11:29:23.960Z,5.97
2022-12-14T11:31:53.830Z,6.24
2022-12-14T11:34:38.429Z,5.72
2022-12-14T11:37:21.491Z,4.89
2022-12-14T11:39:53.675Z,5.39
2022-12-14T11:42:20.867Z,5.50
2022-12-14T11:44:49.394Z,5.52
2022-12-14T11:47:18.836Z,5.03
2022-12-14T11:49:48.088Z,5.43
2022-12-14T11:52:18.300Z,5.65
2022-12-14T11:54:49.564Z,6.02
2022-12-14T11:57:31.085Z,5.62
2022-12-14T12:00:07.275Z,5.93
2022-12-14T12:02:33.823Z,5.47
2022-12-14T12:05:05.939Z,5.87
2022-12-14T12:07:34.846Z,6.34
2022-12-14T12:10:13.701Z,6.39
2022-12-14T12:12:55.246Z,5.59
2022-12-14T12:15:43.308Z,6.71
2022-12-14T12:18:27.667Z,7.33
2022-12-14T12:20:57.386Z,8.05
2022-12-14T12:23:30.734Z,7.75
2022-12-14T12:25:58.959Z,7.85
2022-12-14T12:28:32.129Z,7.61
2022-12-14T12:31:10.384Z,8.42
2022-12-14T12:33:46.848Z,8.77
2022-12-14T12:36:20.457Z,7.17
2022-12-14T12:39:12.531Z,8.21
2022-12-14T12:42:05.523Z,7.77
2022-12-14T12:44:50.701Z,7.69
2022-12-14T12:47:27.941Z,7.53
2022-12-14T12:50:09.482Z,7.19
2022-12-14T12:53:03.255Z,6.75
2022-12-14T12:55:34.459Z,6.87
2022-12-14T12:58:02.981Z,6.80
2022-12-14T13:00:30.502Z,6.51
2022-12-14T13:03:45.088Z,5.92
2022-12-14T13:06:25.294Z,6.14
2022-12-14T13:08:58.245Z,5.68
2022-12-14T13:11:31.740Z,5.89
2022-12-14T13:14:03.696Z,5.94
2022-12-14T13:16:34.001Z,5.75
2022-12-14T13:19:25.437Z,5.91
2022-12-14T13:21:55.158Z,5.36
2022-12-14T13:24:23.888Z,5.68
2022-12-14T13:26:58.247Z,5.78
2022-12-14T13:29:40.346Z,5.92
2022-12-14T13:32:33.789Z,5.97
2022-12-14T13:35:41.075Z,5.28
2022-12-14T13:38:17.239Z,4.86
2022-12-14T13:40:46.981Z,4.89
2022-12-14T13:43:20.952Z,5.14
2022-12-14T13:45:50.035Z,4.95
2022-12-14T13:48:25.312Z,4.80
2022-12-14T13:51:03.637Z,4.73
2022-12-14T13:53:43.613Z,4.82
2022-12-14T13:56:27.825Z,4.76
2022-12-14T13:59:00.434Z,4.69
2022-12-14T14:01:45.606Z,4.71
2022-12-14T14:04:15.117Z,4.42
2022-12-14T14:06:54.941Z,4.27
2022-12-14T14:09:30.512Z,4.34
2022-12-14T14:12:21.859Z,4.42
2022-12-14T14:14:58.581Z,4.44
2022-12-14T14:17:28.141Z,4.25
2022-12-14T14:19:56.483Z,4.21
2022-12-14T14:22:29.801Z,4.25
2022-12-14T14:25:09.388Z,4.23
2022-12-14T14:27:38.636Z,3.99
2022-12-14T14:30:28.213Z,4.01
2022-12-14T14:33:07.635Z,4.06
2022-12-14T14:35:40.165Z,3.72
2022-12-14T14:38:31.306Z,4.06
2022-12-14T14:41:17.375Z,3.88
2022-12-14T14:43:51.519Z,3.75
2022-12-14T14:46:22.909Z,3.73
2022-12-14T14:48:54.066Z,3.76
2022-12-14T14:51:25.345Z,3.69
2022-12-14T14:54:46.172Z,3.67
2022-12-14T14:57:53.844Z,3.62
2022-12-14T15:00:20.366Z,3.52
2022-12-14T15:02:47.329Z,3.34
2022-12-14T15:08:34.742Z,3.29
2022-12-14T15:11:11.375Z,3.25
2022-12-14T15:13:46.604Z,3.07
2022-12-14T15:16:25.081Z,3.27
2022-12-14T15:18:51.946Z,3.16
2022-12-14T15:21:19.238Z,2.86
2022-12-14T15:23:51.587Z,2.95
2022-12-14T15:26:28.956Z,2.99
2022-12-14T15:28:58.185Z,2.51
2022-12-14T15:31:33.152Z,2.75
2022-12-14T15:34:00.332Z,2.40
2022-12-14T15:36:30.202Z,2.67
2022-12-14T15:38:57.720Z,2.70
2022-12-14T15:41:27.518Z,2.56
2022-12-14T15:43:59.742Z,2.65
2022-12-14T15:46:33.773Z,2.56
2022-12-14T15:49:03.618Z,2.61
2022-12-14T15:51:37.388Z,2.56
2022-12-14T15:54:06.159Z,2.40
2022-12-14T15:56:44.667Z,2.11
2022-12-14T15:59:17.708Z,2.10
2022-12-14T16:01:54.383Z,2.24
2022-12-14T16:04:23.428Z,2.13
2022-12-14T16:07:04.487Z,2.10
2022-12-14T16:09:38.926Z,2.09
2022-12-14T16:12:15.592Z,1.79
2022-12-14T16:14:50.742Z,1.97
2022-12-14T16:17:22.323Z,1.92
2022-12-14T16:20:00.026Z,2.00
2022-12-14T16:22:31.995Z,1.90
2022-12-14T16:25:01.818Z,2.01
2022-12-14T16:27:29.872Z,1.98
2022-12-14T16:30:17.487Z,1.94
2022-12-14T16:32:50.161Z,1.89
2022-12-14T16:35:21.330Z,1.88
2022-12-14T16:37:51.348Z,1.69
2022-12-14T16:40:39.620Z,1.77
2022-12-14T16:43:08.008Z,1.33
2022-12-14T16:45:44.156Z,1.41
2022-12-14T16:48:18.109Z,1.55
2022-12-14T16:51:07.909Z,1.64
2022-12-14T16:53:31.387Z,1.52
2022-12-14T16:56:04.073Z,1.59
2022-12-14T16:58:30.890Z,1.66
2022-12-14T17:01:03.583Z,1.25
2022-12-14T17:03:31.925Z,1.02
2022-12-14T17:06:01.003Z,0.59
2022-12-14T17:08:27.749Z,1.38
2022-12-14T17:10:54.951Z,1.08
2022-12-14T17:13:23.873Z,1.05
2022-12-14T17:16:00.103Z,1.34
2022-12-14T17:18:39.595Z,1.11
2022-12-14T17:21:07.627Z,1.29
2022-12-14T17:23:36.921Z,1.05
2022-12-14T17:26:03.944Z,1.24
2022-12-14T17:28:34.603Z,1.13
2022-12-14T17:31:02.743Z,1.11
2022-12-14T17:33:30.291Z,1.21
2022-12-14T17:35:57.204Z,1.04
2022-12-14T17:38:23.804Z,0.83
2022-12-14T17:40:50.915Z,0.94
2022-12-14T17:43:24.880Z,1.20
2022-12-14T17:45:51.453Z,1.16
2022-12-14T17:48:18.193Z,1.38
2022-12-14T17:50:47.248Z,1.24
2022-12-14T17:53:20.773Z,1.38
2022-12-14T17:55:47.358Z,1.05
2022-12-14T17:58:13.860Z,1.19
2022-12-14T18:00:59.473Z,1.09
2022-12-14T18:03:26.815Z,0.93
2022-12-14T18:05:54.103Z,0.89
2022-12-14T18:08:22.609Z,0.99
2022-12-14T18:10:56.784Z,0.75
2022-12-14T18:13:23.414Z,0.94
2022-12-14T18:15:51.664Z,1.06
2022-12-14T18:18:19.761Z,1.00
2022-12-14T18:20:53.114Z,0.96
2022-12-14T18:23:21.296Z,0.95
2022-12-14T18:25:56.282Z,0.96
2022-12-14T18:28:23.462Z,0.75
2022-12-14T18:30:53.488Z,0.67
2022-12-14T18:33:23.771Z,1.01
2022-12-14T18:35:51.020Z,0.73
2022-12-14T18:38:17.575Z,0.80
2022-12-14T18:40:49.638Z,0.97
2022-12-14T18:43:23.563Z,0.94
2022-12-14T18:45:53.915Z,1.03
2022-12-14T18:48:21.575Z,1.06
2022-12-14T18:50:49.925Z,0.99
2022-12-14T18:53:18.481Z,0.84
2022-12-14T18:55:45.004Z,0.88
2022-12-14T18:58:20.970Z,0.87
2022-12-14T19:00:48.792Z,0.77
2022-12-14T19:03:15.481Z,0.49
2022-12-14T19:05:42.246Z,0.49
2022-12-14T19:08:10.315Z,0.85
2022-12-14T19:10:39.680Z,0.70
2022-12-14T19:13:06.258Z,0.52
2022-12-14T19:15:34.670Z,0.69
2022-12-14T19:18:01.464Z,0.68
2022-12-14T19:20:29.273Z,0.48
2022-12-14T19:22:56.104Z,0.69
2022-12-14T19:25:23.536Z,0.68
2022-12-14T19:30:38.963Z,0.58
2022-12-14T19:33:05.545Z,0.65
2022-12-14T19:35:32.099Z,0.46
2022-12-14T19:37:58.686Z,0.23
2022-12-14T19:40:27.047Z,0.57
2022-12-14T19:42:55.840Z,0.63
2022-12-14T19:45:23.619Z,0.32
2022-12-14T19:47:50.368Z,0.49
2022-12-14T19:50:17.232Z,0.07
2022-12-14T19:52:44.053Z,0.28
2022-12-14T19:55:11.815Z,0.18
2022-12-14T19:57:42.653Z,0.14
2022-12-14T20:00:12.898Z,0.29
2022-12-14T20:02:39.894Z,0.42
2022-12-14T20:05:07.355Z,0.54
2022-12-14T20:07:37.397Z,0.38
2022-12-14T20:10:08.283Z,0.34
2022-12-14T20:12:35.199Z,0.14
2022-12-14T20:15:01.831Z,0.26
2022-12-14T20:17:28.386Z,-0.05
2022-12-14T20:19:55.034Z,-0.21
2022-12-14T20:22:23.780Z,0.17
2022-12-14T20:24:51.390Z,0.18
2022-12-14T20:27:19.924Z,-0.15
2022-12-14T20:29:47.460Z,-0.12
2022-12-14T20:32:14.282Z,-0.08
2022-12-14T20:34:42.055Z,0.06
2022-12-14T20:37:08.707Z,0.19
2022-12-14T20:39:35.248Z,0.24
2022-12-14T20:42:01.757Z,0.27
2022-12-14T20:44:28.940Z,0.29
2022-12-14T20:46:55.479Z,0.29
2022-12-14T20:49:23.533Z,-0.02
2022-12-14T20:51:50.047Z,0.27
2022-12-14T20:54:18.825Z,-0.04
2022-12-14T20:56:49.729Z,0.24
2022-12-14T20:59:17.060Z,0.10
2022-12-14T21:01:44.172Z,-0.05
2022-12-14T21:04:10.833Z,-0.07
2022-12-14T21:06:39.641Z,0.18
2022-12-14T21:09:09.508Z,-0.27
2022-12-14T21:11:56.105Z,-0.13
2022-12-14T21:14:24.351Z,0.02
2022-12-14T21:16:50.918Z,-0.23
2022-12-14T21:19:17.754Z,0.04
2022-12-14T21:21:49.699Z,0.11
2022-12-14T21:24:37.263Z,0.05
2022-12-14T21:27:08.084Z,0.07
2022-12-14T21:29:34.803Z,-1.18
2022-12-14T21:32:01.537Z,-0.26
2022-12-14T21:34:28.476Z,-0.40
2022-12-14T21:36:54.995Z,-0.33
2022-12-14T21:39:21.507Z,-0.62
2022-12-14T21:42:06.820Z,-0.39
2022-12-14T21:44:37.000Z,-0.72
2022-12-14T21:47:05.783Z,-0.55
2022-12-14T21:49:32.522Z,-1.00
2022-12-14T21:51:59.087Z,-0.39
2022-12-14T21:54:26.071Z,-0.66
2022-12-14T21:57:11.032Z,-0.52
2022-12-14T21:59:42.515Z,-0.52
2022-12-14T22:02:18.985Z,-0.90
2022-12-14T22:04:46.631Z,-0.54
2022-12-14T22:07:18.376Z,-0.82
2022-12-14T22:09:49.450Z,-0.82
2022-12-14T22:12:17.346Z,-0.82
2022-12-14T22:14:43.907Z,-1.02
2022-12-14T22:17:11.426Z,-1.21
2022-12-14T22:19:37.925Z,-0.87
2022-12-14T22:22:05.151Z,-1.09
2022-12-14T22:24:31.855Z,-0.73
2022-12-14T22:26:59.383Z,-0.81
2022-12-14T22:29:25.934Z,-1.13
2022-12-14T22:31:52.577Z,-0.81
2022-12-14T22:34:21.850Z,-1.44
2022-12-14T22:36:49.995Z,-0.93
2022-12-14T22:39:17.645Z,-1.24
2022-12-14T22:41:44.600Z,-1.05
2022-12-14T22:44:12.632Z,-0.94
2022-12-14T22:46:40.222Z,-0.86
2022-12-14T22:49:07.013Z,-0.85
2022-12-14T22:51:33.528Z,-1.00
2022-12-14T22:54:00.051Z,-0.82
2022-12-14T22:56:31.320Z,-0.99
2022-12-14T22:58:57.758Z,-0.94
2022-12-14T23:01:24.643Z,-0.83
2022-12-14T23:03:52.752Z,-0.61
2022-12-14T23:06:20.115Z,-0.54
2022-12-14T23:09:06.737Z,-0.47
2022-12-14T23:11:52.923Z,-0.56
2022-12-14T23:14:38.679Z,-0.37
2022-12-14T23:17:24.760Z,-0.64
2022-12-14T23:20:09.922Z,-0.91
2022-12-14T23:22:54.965Z,-0.80
2022-12-14T23:25:40.170Z,-0.84
2022-12-14T23:28:25.378Z,-0.89
2022-12-14T23:31:10.958Z,-1.22
2022-12-14T23:33:56.157Z,-1.69
2022-12-14T23:36:41.357Z,-1.27
2022-12-14T23:39:26.455Z,-1.13
2022-12-14T23:42:11.795Z,-0.96
2022-12-14T23:44:57.162Z,-1.30
2022-12-14T23:47:42.362Z,-1.02
2022-12-14T23:50:27.444Z,-0.62
2022-12-14T23:53:12.288Z,-0.68
2022-12-14T23:55:57.549Z,-0.80
2022-12-14T23:58:42.856Z,-0.64
